Time;durP1;ratioP1;P1;durP2;ratioP2;P2;SDS_P1;SDS_P2;PMS_P1;PMS_P2;Temp;Humidity;BMP_temperature;BMP_pressure;BME280_temperature;BME280_humidity;BME280_pressure;Samples;Min_cycle;Max_cycle;Signal;HPM_P1;HPM_P2
2024/01/02 06:09:28;;;;;;;1.95;1.52;;;2.80;99.90;;;;;;7612586;19;20816;-73
2024/01/02 06:12:01;;;;;;;3.42;1.95;;;3.00;99.90;;;;;;7622017;19;20010;-73
2024/01/02 06:14:33;;;;;;;2.03;1.02;;;3.20;99.90;;;;;;7622228;19;20050;-74
2024/01/02 06:17:05;;;;;;;1.40;1.03;;;3.40;99.90;;;;;;7618191;19;20760;-74
2024/01/02 06:19:38;;;;;;;1.30;0.80;;;3.60;99.90;;;;;;7619172;19;20036;-73
2024/01/02 06:22:10;;;;;;;4.20;1.40;;;3.60;99.90;;;;;;7613568;19;20022;-73
2024/01/02 06:24:43;;;;;;;2.67;1.77;;;3.80;99.90;;;;;;7607537;19;20283;-73
2024/01/02 06:27:15;;;;;;;1.55;0.88;;;3.80;99.90;;;;;;7615234;19;20401;-74
2024/01/02 06:29:47;;;;;;;1.63;1.05;;;3.90;99.90;;;;;;7612802;19;20486;-72
2024/01/02 06:32:21;;;;;;;4.63;0.98;;;4.00;99.90;;;;;;7626886;19;20048;-73
2024/01/02 06:34:53;;;;;;;3.97;1.30;;;4.00;99.90;;;;;;7619550;19;20018;-73
2024/01/02 06:37:25;;;;;;;1.63;1.00;;;4.10;99.90;;;;;;7625997;19;20018;-73
2024/01/02 06:39:58;;;;;;;2.47;1.30;;;4.10;99.90;;;;;;7622760;19;20014;-73
2024/01/02 06:42:30;;;;;;;1.90;1.00;;;4.10;99.90;;;;;;7631858;19;20025;-73
2024/01/02 06:45:02;;;;;;;1.20;1.00;;;4.20;99.90;;;;;;7623219;19;20737;-73
2024/01/02 06:47:37;;;;;;;2.53;1.63;;;4.20;99.90;;;;;;7644947;19;20658;-73
2024/01/02 06:50:09;;;;;;;3.00;1.70;;;4.20;99.90;;;;;;7621204;19;20018;-74
2024/01/02 06:52:41;;;;;;;3.20;1.25;;;4.20;99.90;;;;;;7637704;19;20097;-73
2024/01/02 06:55:14;;;;;;;2.75;1.10;;;4.20;99.90;;;;;;7628250;19;20010;-73
2024/01/02 06:57:47;;;;;;;2.38;1.40;;;4.20;99.90;;;;;;7619286;19;20029;-73
2024/01/02 07:00:29;;;;;;;5.88;1.70;;;4.20;99.90;;;;;;7627916;19;20020;-73
2024/01/02 07:03:01;;;;;;;4.00;1.38;;;4.20;99.90;;;;;;7600706;19;20837;-72
2024/01/02 07:05:34;;;;;;;2.55;1.20;;;4.20;99.90;;;;;;7648284;19;20022;-74
2024/01/02 07:08:07;;;;;;;2.80;1.15;;;4.10;99.90;;;;;;7619156;19;20304;-74
2024/01/02 07:10:40;;;;;;;2.40;1.00;;;4.10;99.90;;;;;;7622697;19;20634;-74
2024/01/02 07:13:12;;;;;;;5.32;1.08;;;4.00;99.90;;;;;;7630371;19;20114;-73
2024/01/02 07:15:44;;;;;;;5.53;1.50;;;4.00;99.90;;;;;;7609077;19;20018;-73
2024/01/02 07:18:17;;;;;;;1.73;1.10;;;4.00;99.90;;;;;;7619895;19;20052;-73
2024/01/02 07:20:50;;;;;;;1.90;1.20;;;4.00;99.90;;;;;;7595565;19;20022;-74
2024/01/02 07:23:23;;;;;;;3.22;1.63;;;4.00;99.90;;;;;;7592704;19;20015;-73
2024/01/02 07:25:56;;;;;;;1.98;1.30;;;4.00;99.90;;;;;;7591500;19;20180;-73
2024/01/02 07:28:28;;;;;;;1.40;1.10;;;4.00;99.90;;;;;;7595093;19;20618;-72
2024/01/02 07:31:00;;;;;;;2.80;1.70;;;4.00;99.90;;;;;;7587746;19;20019;-73
2024/01/02 07:33:33;;;;;;;2.15;1.25;;;3.90;99.90;;;;;;7594168;19;20026;-73
2024/01/02 07:36:07;;;;;;;2.85;1.27;;;3.90;99.90;;;;;;7566667;19;20022;-72
2024/01/02 07:38:39;;;;;;;1.77;1.20;;;3.80;99.90;;;;;;7578398;19;20019;-72
2024/01/02 07:41:11;;;;;;;2.97;1.30;;;3.90;99.90;;;;;;7588895;19;20276;-72
2024/01/02 07:43:44;;;;;;;4.93;1.70;;;4.00;99.90;;;;;;7574531;19;20014;-72
2024/01/02 07:46:17;;;;;;;2.47;1.70;;;4.00;99.90;;;;;;7547130;19;20018;-72
2024/01/02 07:48:50;;;;;;;1.67;1.25;;;3.90;99.90;;;;;;7587488;19;20006;-72
2024/01/02 07:51:23;;;;;;;3.53;1.88;;;4.00;99.90;;;;;;7569245;19;20867;-73
2024/01/02 07:53:56;;;;;;;2.50;1.70;;;3.90;99.90;;;;;;7590684;19;20618;-72
2024/01/02 07:56:30;;;;;;;2.30;1.85;;;3.90;99.90;;;;;;7573688;19;21031;-73
2024/01/02 07:59:03;;;;;;;3.70;2.22;;;3.90;99.90;;;;;;7563616;19;20021;-73
2024/01/02 08:01:39;;;;;;;2.33;1.60;;;3.80;99.90;;;;;;7554315;19;20007;-72
2024/01/02 08:04:12;;;;;;;6.30;1.70;;;3.90;99.90;;;;;;7545970;19;20133;-72
2024/01/02 08:06:44;;;;;;;3.80;1.40;;;4.00;99.90;;;;;;7556319;19;20022;-73
2024/01/02 08:09:17;;;;;;;2.10;1.08;;;4.10;99.90;;;;;;7561593;19;20052;-74
2024/01/02 08:11:49;;;;;;;1.88;1.15;;;4.10;99.90;;;;;;7559660;19;25407;-71
2024/01/02 08:14:22;;;;;;;3.30;1.40;;;4.20;99.90;;;;;;7568188;19;20014;-73
2024/01/02 08:16:54;;;;;;;2.72;1.27;;;4.30;99.90;;;;;;7550259;19;20471;-71
2024/01/02 08:19:28;;;;;;;4.03;1.60;;;4.30;99.90;;;;;;7537221;19;20010;-72
2024/01/02 08:22:02;;;;;;;3.47;1.27;;;4.40;99.90;;;;;;7535331;19;20027;-73
2024/01/02 08:24:35;;;;;;;;;;;4.40;99.90;;;;;;7538792;19;20018;-72
2024/01/02 08:27:09;;;;;;;3.20;1.73;;;4.30;99.90;;;;;;7530154;19;19918;-72
2024/01/02 08:29:41;;;;;;;3.80;1.85;;;4.30;99.90;;;;;;7576973;19;20030;-73
2024/01/02 08:32:20;;;;;;;4.28;2.25;;;4.30;99.90;;;;;;7563876;19;20491;-72
2024/01/02 08:34:52;;;;;;;3.88;1.92;;;4.30;99.90;;;;;;7550202;19;20479;-72
2024/01/02 08:37:25;;;;;;;16.73;7.05;;;4.30;99.90;;;;;;7562278;19;20021;-73
2024/01/02 08:39:57;;;;;;;6.85;2.95;;;4.30;99.90;;;;;;7566421;19;20015;-73
2024/01/02 08:42:30;;;;;;;2.50;1.45;;;4.30;99.90;;;;;;7559241;19;20018;-73
2024/01/02 08:45:04;;;;;;;3.08;1.58;;;4.40;99.90;;;;;;7552888;19;20022;-72
2024/01/02 08:47:40;;;;;;;4.68;1.48;;;4.90;99.90;;;;;;7544652;19;20030;-73
2024/01/02 08:50:12;;;;;;;5.47;1.50;;;5.10;99.90;;;;;;7537014;19;20010;-73
2024/01/02 08:52:47;;;;;;;5.47;2.25;;;5.10;99.90;;;;;;7553750;19;20015;-73
2024/01/02 08:55:20;;;;;;;3.85;1.52;;;5.10;99.90;;;;;;7538629;19;20014;-72
2024/01/02 08:57:52;;;;;;;4.13;1.52;;;5.10;99.90;;;;;;7539585;19;20015;-73
2024/01/02 09:00:25;;;;;;;3.63;1.55;;;5.10;99.90;;;;;;7556847;19;20050;-74
2024/01/02 15:13:07;;;;;;;0.25;0.25;;;10.50;99.90;;;;;;7547500;19;20805;-75
2024/01/02 15:16:08;;;;;;;0.35;0.30;;;10.50;99.90;;;;;;7542004;19;20146;-74
2024/01/02 15:18:46;;;;;;;0.30;0.30;;;10.50;99.90;;;;;;7561806;19;20014;-75
2024/01/02 15:21:23;;;;;;;1.83;0.43;;;10.50;99.90;;;;;;7067809;19;10000962;-75
2024/01/02 15:24:16;;;;;;;1.77;0.93;;;10.50;99.90;;;;;;7095687;19;10000136;-75
2024/01/02 15:26:59;;;;;;;2.45;1.08;;;10.50;99.90;;;;;;7608970;19;20014;-75
2024/01/02 15:29:55;;;;;;;1.95;0.70;;;10.50;99.90;;;;;;7607067;19;20048;-75
2024/01/02 15:32:39;;;;;;;1.40;0.70;;;10.50;99.90;;;;;;7612729;19;20704;-75
2024/01/02 15:35:16;;;;;;;2.17;0.85;;;10.50;99.90;;;;;;7621247;19;20055;-74
2024/01/02 15:38:24;;;;;;;2.47;0.73;;;10.50;99.90;;;;;;7629516;19;20025;-75
2024/01/02 15:41:01;;;;;;;3.17;1.15;;;10.50;99.90;;;;;;7605833;19;20019;-75
2024/01/02 15:43:44;;;;;;;1.42;0.75;;;10.50;99.90;;;;;;7592746;19;20601;-76
2024/01/02 15:46:28;;;;;;;0.40;0.40;;;10.40;99.90;;;;;;7601580;19;20033;-75
2024/01/02 15:49:21;;;;;;;5.10;0.60;;;10.30;99.90;;;;;;7619519;19;20010;-75
2024/01/02 15:52:03;;;;;;;0.93;0.60;;;10.30;99.90;;;;;;7622711;19;20017;-75
2024/01/02 15:54:47;;;;;;;0.85;0.50;;;10.30;99.90;;;;;;7600832;19;20022;-75
2024/01/02 15:57:23;;;;;;;1.42;0.70;;;10.30;99.90;;;;;;7638543;19;20025;-75
2024/01/02 16:00:09;;;;;;;1.35;0.50;;;10.20;99.90;;;;;;7621405;19;20029;-75
2024/01/02 16:03:09;;;;;;;0.65;0.52;;;10.20;99.90;;;;;;7624577;19;21602;-72
2024/01/02 16:06:10;;;;;;;0.40;0.40;;;10.20;99.90;;;;;;7623883;19;21136;-76
2024/01/02 16:08:44;;;;;;;0.65;0.55;;;10.20;99.90;;;;;;7599974;19;20014;-76
2024/01/02 16:11:32;;;;;;;1.88;0.50;;;10.20;99.90;;;;;;7610531;19;20018;-76
2024/01/02 16:14:17;;;;;;;1.02;0.43;;;10.20;99.90;;;;;;7605548;19;20538;-75
2024/01/02 16:17:06;;;;;;;0.57;0.40;;;10.20;99.90;;;;;;7606736;19;20483;-75
2024/01/02 16:19:48;;;;;;;0.70;0.60;;;10.20;99.90;;;;;;7602643;19;20111;-75
2024/01/02 16:22:58;;;;;;;1.00;0.70;;;10.20;99.90;;;;;;7598322;19;20029;-74
2024/01/02 16:26:06;;;;;;;0.60;0.43;;;10.10;99.90;;;;;;7573939;19;20022;-75
2024/01/02 16:28:57;;;;;;;1.38;0.60;;;10.10;99.90;;;;;;7573841;19;20015;-75
2024/01/02 16:31:51;;;;;;;0.40;0.40;;;10.10;99.90;;;;;;7562594;19;20049;-75
2024/01/02 16:35:06;;;;;;;0.77;0.55;;;10.00;99.90;;;;;;7572782;19;20021;-76
2024/01/02 16:38:11;;;;;;;0.75;0.55;;;9.90;99.90;;;;;;7520683;19;20050;-75
2024/01/02 16:40:55;;;;;;;2.50;0.50;;;9.80;99.90;;;;;;7569398;19;20025;-73
2024/01/02 16:43:39;;;;;;;0.85;0.70;;;9.80;99.90;;;;;;7579691;19;21078;-75
2024/01/02 16:46:23;;;;;;;0.30;0.30;;;9.80;99.90;;;;;;7575635;19;20064;-74
2024/01/02 16:48:57;;;;;;;1.52;0.50;;;9.90;99.90;;;;;;7568346;19;20010;-75
2024/01/02 16:51:30;;;;;;;0.50;0.50;;;9.90;99.90;;;;;;7570933;19;20018;-76
2024/01/02 16:54:04;;;;;;;1.52;0.98;;;9.90;99.90;;;;;;7568597;19;20014;-74
2024/01/02 16:56:37;;;;;;;0.85;0.50;;;9.80;99.90;;;;;;7573245;19;20034;-76
2024/01/02 16:59:10;;;;;;;1.00;0.47;;;9.80;99.90;;;;;;7570636;19;20015;-75
2024/01/02 17:01:42;;;;;;;0.70;0.40;;;9.80;99.90;;;;;;7566782;19;20847;-76
2024/01/02 17:04:18;;;;;;;0.30;0.30;;;9.80;99.90;;;;;;7575856;19;20022;-76
2024/01/02 17:06:52;;;;;;;0.95;0.60;;;9.70;99.90;;;;;;7583628;19;20025;-72
2024/01/02 17:09:26;;;;;;;1.98;0.68;;;9.70;99.90;;;;;;7569040;19;20055;-74
2024/01/02 17:11:59;;;;;;;2.58;0.63;;;9.70;99.90;;;;;;7570409;19;20026;-72
2024/01/02 17:14:32;;;;;;;0.40;0.40;;;9.70;99.90;;;;;;7579549;19;20056;-74
2024/01/02 17:17:05;;;;;;;0.30;0.30;;;9.60;99.90;;;;;;7561121;19;20019;-73
2024/01/02 17:19:39;;;;;;;1.27;0.98;;;9.70;99.90;;;;;;7583114;19;20010;-72
2024/01/02 17:22:12;;;;;;;1.08;0.85;;;9.60;99.90;;;;;;7566564;19;20102;-72
2024/01/02 17:24:47;;;;;;;1.17;0.60;;;9.50;99.90;;;;;;7565872;19;20018;-73
2024/01/02 17:27:22;;;;;;;0.80;0.50;;;9.50;99.90;;;;;;7535126;19;20011;-73
2024/01/02 17:29:56;;;;;;;0.68;0.35;;;9.50;99.90;;;;;;7577938;19;20033;-73
2024/01/02 17:32:33;;;;;;;0.50;0.43;;;9.60;99.90;;;;;;7564928;19;20019;-73
2024/01/02 17:35:06;;;;;;;0.40;0.40;;;9.60;99.90;;;;;;7570024;19;20029;-72
2024/01/02 17:37:41;;;;;;;0.50;0.50;;;9.60;99.90;;;;;;7574253;19;20034;-74
2024/01/02 17:40:14;;;;;;;0.90;0.60;;;9.60;99.90;;;;;;7509230;19;20539;-73
2024/01/02 17:42:47;;;;;;;;;;;9.50;99.90;;;;;;7536108;19;20025;-72
2024/01/02 17:45:25;;;;;;;1.48;1.02;;;9.50;99.90;;;;;;7523191;19;20014;-74
2024/01/02 17:48:08;;;;;;;2.45;1.65;;;9.50;99.90;;;;;;7546283;19;20018;-73
2024/01/02 17:50:56;;;;;;;3.15;1.92;;;9.50;99.90;;;;;;7525735;19;20022;-74
2024/01/02 17:53:29;;;;;;;1.35;0.90;;;9.60;99.90;;;;;;7539671;19;20395;-73
2024/01/02 17:56:12;;;;;;;2.00;1.10;;;9.70;99.90;;;;;;7554664;19;20026;-73
2024/01/02 17:58:51;;;;;;;2.50;1.30;;;9.80;99.90;;;;;;7549560;19;20018;-72
2024/01/02 18:01:25;;;;;;;2.42;1.40;;;9.90;99.90;;;;;;7508357;19;20300;-75
2024/01/02 18:04:10;;;;;;;1.17;0.75;;;9.90;99.90;;;;;;7534870;19;20543;-73
2024/01/02 18:06:51;;;;;;;2.67;1.75;;;10.00;99.90;;;;;;7538465;19;20018;-73
2024/01/02 18:09:54;;;;;;;1.85;1.08;;;10.00;99.90;;;;;;7531826;19;20014;-74
2024/01/02 18:12:50;;;;;;;0.80;0.50;;;9.90;99.90;;;;;;7541117;19;20022;-74
2024/01/02 18:15:56;;;;;;;1.08;0.77;;;10.00;99.90;;;;;;7520268;19;20324;-74
2024/01/02 18:19:07;;;;;;;1.55;1.10;;;10.00;99.90;;;;;;7535451;19;20033;-73
2024/01/02 18:21:49;;;;;;;1.52;0.77;;;10.10;99.90;;;;;;7547694;19;20015;-73
2024/01/02 18:24:41;;;;;;;1.35;0.80;;;10.10;99.90;;;;;;7553538;19;21334;-74
2024/01/02 18:27:31;;;;;;;1.38;0.63;;;10.10;99.90;;;;;;7544077;19;20925;-73
2024/01/02 18:30:15;;;;;;;0.98;0.70;;;10.00;99.90;;;;;;7546191;19;20018;-72
2024/01/02 18:33:06;;;;;;;;;;;10.10;99.90;;;;;;7537054;19;20018;-73
2024/01/02 18:35:51;;;;;;;0.77;0.60;;;10.20;99.90;;;;;;7549172;19;20931;-73
2024/01/02 18:39:08;;;;;;;0.80;0.70;;;10.10;99.90;;;;;;7544251;19;20033;-74
2024/01/02 18:41:54;;;;;;;0.68;0.60;;;10.00;99.90;;;;;;7537792;19;20014;-74
2024/01/02 18:44:49;;;;;;;1.65;1.00;;;10.10;99.90;;;;;;7549100;19;20021;-73
2024/01/02 18:47:31;;;;;;;1.80;1.00;;;10.10;99.90;;;;;;7535861;19;20018;-73
2024/01/02 18:50:08;;;;;;;1.27;0.65;;;10.10;99.90;;;;;;7520493;19;21451;-73
2024/01/02 18:53:35;;;;;;;1.63;1.00;;;10.20;99.90;;;;;;7522025;19;20026;-74
2024/01/02 18:56:09;;;;;;;3.45;1.90;;;10.20;99.90;;;;;;7550964;19;20551;-73
2024/01/02 18:58:51;;;;;;;1.98;1.30;;;10.20;99.90;;;;;;7556620;19;20554;-73
2024/01/02 19:01:23;;;;;;;1.33;0.88;;;10.20;99.90;;;;;;7546508;19;20018;-73
2024/01/02 19:04:11;;;;;;;2.70;1.43;;;10.30;99.90;;;;;;7047543;19;10000413;-73
2024/01/02 19:06:45;;;;;;;2.22;1.42;;;10.30;99.90;;;;;;7538174;19;20039;-73
2024/01/02 19:09:26;;;;;;;8.80;4.30;;;10.40;99.90;;;;;;7553684;19;23336;-72
2024/01/02 19:12:06;;;;;;;4.63;2.50;;;10.40;99.90;;;;;;7562846;19;20020;-72
2024/01/02 19:14:39;;;;;;;1.02;0.70;;;10.40;99.90;;;;;;7551017;19;20025;-73
2024/01/02 19:17:14;;;;;;;2.92;1.08;;;10.40;99.90;;;;;;7566789;19;20019;-73
2024/01/02 19:19:48;;;;;;;1.08;0.80;;;10.40;99.90;;;;;;7566672;19;20484;-72
2024/01/02 19:22:21;;;;;;;1.30;1.20;;;10.50;99.90;;;;;;7561969;19;22758;-73
2024/01/02 19:24:59;;;;;;;1.15;0.80;;;10.40;99.90;;;;;;7574796;19;21173;-73
2024/01/02 19:27:35;;;;;;;1.38;0.80;;;10.30;99.90;;;;;;7562590;19;20505;-73
2024/01/02 19:30:10;;;;;;;0.63;0.50;;;10.30;99.90;;;;;;7546975;19;20013;-73
2024/01/02 19:32:43;;;;;;;3.53;0.90;;;10.30;99.90;;;;;;7540441;19;20010;-72
2024/01/02 19:35:18;;;;;;;1.52;1.10;;;10.20;99.90;;;;;;7532821;19;20019;-72
2024/01/02 19:37:52;;;;;;;1.55;1.00;;;10.10;99.90;;;;;;7555625;19;20014;-72
2024/01/02 19:40:25;;;;;;;1.17;0.90;;;10.00;99.90;;;;;;7554565;19;20040;-73
2024/01/02 19:42:57;;;;;;;2.67;0.90;;;9.80;99.90;;;;;;7545280;19;25579;-72
2024/01/02 19:45:29;;;;;;;0.90;0.50;;;9.70;99.90;;;;;;7556960;19;20033;-72
2024/01/02 19:48:03;;;;;;;1.83;1.00;;;9.60;99.90;;;;;;7554810;19;20025;-72
2024/01/02 19:50:38;;;;;;;1.00;0.60;;;9.40;99.90;;;;;;7546121;19;20643;-74
2024/01/02 19:53:10;;;;;;;2.97;1.73;;;9.40;99.90;;;;;;7560097;19;20015;-73
2024/01/02 19:55:44;;;;;;;10.98;6.93;;;9.50;99.90;;;;;;7523727;19;20073;-74
2024/01/02 19:58:16;;;;;;;3.67;1.90;;;9.40;99.90;;;;;;7521727;19;21078;-72
2024/01/02 20:00:52;;;;;;;1.50;0.90;;;9.50;99.90;;;;;;7540643;19;20014;-73
2024/01/02 20:03:35;;;;;;;0.40;0.40;;;9.70;99.90;;;;;;7553855;19;20018;-73
2024/01/02 20:06:40;;;;;;;0.50;0.50;;;9.70;99.90;;;;;;7552579;19;20075;-74
2024/01/02 20:09:25;;;;;;;;;;;9.80;99.90;;;;;;7548376;19;20023;-72
2024/01/02 20:11:57;;;;;;;0.60;0.50;;;9.80;99.90;;;;;;7566234;19;19911;-72
2024/01/02 20:14:48;;;;;;;0.63;0.40;;;9.70;99.90;;;;;;7559388;19;20025;-73
2024/01/02 20:17:21;;;;;;;0.68;0.40;;;9.80;99.90;;;;;;7560494;19;20271;-73
2024/01/02 20:19:56;;;;;;;1.20;0.50;;;10.00;99.90;;;;;;7570110;19;20374;-72
2024/01/02 20:22:29;;;;;;;0.88;0.77;;;9.90;99.90;;;;;;7545865;19;20551;-72
2024/01/02 20:25:05;;;;;;;0.70;0.70;;;9.80;99.90;;;;;;7579148;19;20988;-73
2024/01/02 20:27:49;;;;;;;0.40;0.40;;;9.70;99.90;;;;;;7572035;19;20438;-72
2024/01/02 20:30:22;;;;;;;1.75;0.80;;;9.80;99.90;;;;;;7555145;19;25019;-72
2024/01/02 20:33:00;;;;;;;0.82;0.40;;;9.80;99.90;;;;;;7569777;19;20019;-73
2024/01/02 20:35:35;;;;;;;0.55;0.40;;;10.00;99.90;;;;;;7562130;19;20494;-73
2024/01/02 20:38:26;;;;;;;0.63;0.50;;;10.20;99.90;;;;;;7568682;19;20056;-73
2024/01/02 20:40:59;;;;;;;0.65;0.35;;;10.20;99.90;;;;;;7568531;19;20045;-72
2024/01/02 20:43:40;;;;;;;0.40;0.40;;;10.30;99.90;;;;;;7537254;19;20023;-73
2024/01/02 20:46:19;;;;;;;0.63;0.50;;;10.40;99.90;;;;;;7549946;19;20022;-73
2024/01/02 20:49:17;;;;;;;2.38;0.50;;;10.40;99.90;;;;;;7551452;19;20015;-74
2024/01/02 20:51:50;;;;;;;0.30;0.30;;;10.40;99.90;;;;;;7561886;19;20814;-73
2024/01/02 20:54:25;;;;;;;0.47;0.30;;;10.40;99.90;;;;;;7572396;19;20081;-74
2024/01/02 20:57:06;;;;;;;0.35;0.35;;;10.60;99.90;;;;;;7571634;19;20022;-75
2024/01/02 20:59:42;;;;;;;0.35;0.30;;;10.50;99.90;;;;;;7535472;19;20503;-73
2024/01/02 21:02:20;;;;;;;2.10;0.40;;;10.50;99.90;;;;;;7561896;19;20058;-73
2024/01/02 21:04:56;;;;;;;0.50;0.50;;;10.50;99.90;;;;;;7567735;19;20033;-75
2024/01/02 21:07:35;;;;;;;0.50;0.50;;;10.50;99.90;;;;;;7551022;19;20025;-74
2024/01/02 21:10:48;;;;;;;0.70;0.32;;;10.60;99.90;;;;;;7565130;19;20014;-73
2024/01/02 21:13:32;;;;;;;0.35;0.30;;;10.70;99.90;;;;;;7560299;19;20443;-73
2024/01/02 21:16:08;;;;;;;0.40;0.38;;;10.80;99.90;;;;;;7557676;19;20103;-72
2024/01/02 21:18:51;;;;;;;0.63;0.40;;;10.70;99.90;;;;;;7578994;19;20056;-73
2024/01/02 21:21:36;;;;;;;0.20;0.20;;;10.70;99.90;;;;;;7538140;19;20018;-73
2024/01/02 21:24:34;;;;;;;1.38;0.40;;;10.90;99.90;;;;;;7583293;19;20082;-72
2024/01/02 21:27:07;;;;;;;0.57;0.40;;;11.00;99.90;;;;;;7600897;19;20026;-74
2024/01/02 21:29:40;;;;;;;0.37;0.30;;;11.00;99.90;;;;;;7574879;19;20011;-73
2024/01/02 21:32:15;;;;;;;0.65;0.20;;;11.10;99.90;;;;;;7557920;19;20052;-74
2024/01/02 21:34:51;;;;;;;0.30;0.30;;;11.20;99.90;;;;;;7563264;19;20898;-73
2024/01/02 21:37:29;;;;;;;0.20;0.20;;;11.10;99.90;;;;;;7570848;19;20021;-73
2024/01/02 21:40:17;;;;;;;0.20;0.20;;;11.20;99.90;;;;;;7568521;19;20443;-73
2024/01/02 21:42:52;;;;;;;0.73;0.30;;;11.20;99.90;;;;;;7559280;19;20014;-74
2024/01/02 21:48:43;;;;;;;1.98;0.30;;;11.30;99.90;;;;;;7570327;19;20022;-73
